Archival Weather

Fukuoka

Fukuoka, Japan (RJFF)

Report from: Monday, August 15, 2022 7:00 PM JST
Current time: Sunday, February 25, 2024 1:02 AM JST

Current weather – Weather history – Daily summaries
Weather forecast

Present weatherVCSH
Temperature30.0°C (86.0°F)
Heat index36.3°C (97.3°F)
Dew point25.0°C (77.0°F)
Winds 11 kts (5.7 m/s, 12.7 mph) South (170°)
Visibility6.2 mi. (10 km)
Clouds Ceiling: Broken clouds 0 ft. (0 m)
Few clouds 1,000 ft. (305 m)
Altimeter29.71 in.Hg (1006 mB)
Relative humidity75 %
Density altitude2,386 ft. (727 m)
Remarks No significant changes expected in the next two hours
Flight conditions Low Instrument Meteorological Conditions
Raw dataRJFF 151000Z 17011KT 9999 VCSH FEW010 BKN/// 30/25 Q1006 NOSIG
An error has occurred. This application may no longer respond until reloaded. Reload 🗙